sensor_id;sensor_type;location;lat;lon;timestamp;pressure;altitude;pressure_sealevel;temperature;humidity
58245;BME280;44550;43.864;25.986;2022-12-18T00:02:07;101959.09;;;6.69;93.17
58245;BME280;44550;43.864;25.986;2022-12-18T00:06:08;101965.31;;;6.53;92.79
58245;BME280;44550;43.864;25.986;2022-12-18T00:10:08;101965.06;;;6.47;92.15
58245;BME280;44550;43.864;25.986;2022-12-18T00:14:14;101976.19;;;6.45;92.35
58245;BME280;44550;43.864;25.986;2022-12-18T00:18:15;101966.09;;;6.31;92.19
58245;BME280;44550;43.864;25.986;2022-12-18T00:22:16;101973.28;;;6.18;92.45
58245;BME280;44550;43.864;25.986;2022-12-18T00:26:16;101985.84;;;6.08;92.76
58245;BME280;44550;43.864;25.986;2022-12-18T00:30:18;101987.97;;;5.98;93.24
58245;BME280;44550;43.864;25.986;2022-12-18T00:34:19;101980.94;;;5.95;93.22
58245;BME280;44550;43.864;25.986;2022-12-18T00:38:18;101985.25;;;5.95;93.26
58245;BME280;44550;43.864;25.986;2022-12-18T00:42:19;101989.59;;;5.96;93.03
58245;BME280;44550;43.864;25.986;2022-12-18T00:46:34;101996.88;;;5.85;92.83
58245;BME280;44550;43.864;25.986;2022-12-18T00:50:36;102009.34;;;5.74;92.97
58245;BME280;44550;43.864;25.986;2022-12-18T00:54:35;102010.38;;;5.78;92.51
58245;BME280;44550;43.864;25.986;2022-12-18T00:58:37;102012.00;;;5.76;92.27
58245;BME280;44550;43.864;25.986;2022-12-18T01:02:36;102023.91;;;5.71;91.99
58245;BME280;44550;43.864;25.986;2022-12-18T01:06:38;102025.66;;;5.72;91.98
58245;BME280;44550;43.864;25.986;2022-12-18T01:10:39;102034.34;;;5.72;91.94
58245;BME280;44550;43.864;25.986;2022-12-18T01:14:38;102026.34;;;5.68;92.06
58245;BME280;44550;43.864;25.986;2022-12-18T01:18:37;102029.09;;;5.71;92.56
58245;BME280;44550;43.864;25.986;2022-12-18T01:22:38;102027.03;;;5.63;92.78
58245;BME280;44550;43.864;25.986;2022-12-18T01:26:38;102029.09;;;5.71;92.62
58245;BME280;44550;43.864;25.986;2022-12-18T01:30:39;102028.56;;;5.78;91.97
58245;BME280;44550;43.864;25.986;2022-12-18T01:34:38;102038.06;;;5.77;91.63
58245;BME280;44550;43.864;25.986;2022-12-18T01:38:39;102049.59;;;5.84;91.21
58245;BME280;44550;43.864;25.986;2022-12-18T01:42:38;102042.34;;;5.77;91.13
58245;BME280;44550;43.864;25.986;2022-12-18T01:46:37;102049.25;;;5.76;90.51
58245;BME280;44550;43.864;25.986;2022-12-18T01:50:37;102054.94;;;5.69;90.22
58245;BME280;44550;43.864;25.986;2022-12-18T01:54:41;102052.44;;;5.71;90.11
58245;BME280;44550;43.864;25.986;2022-12-18T01:58:41;102064.38;;;5.67;89.87
58245;BME280;44550;43.864;25.986;2022-12-18T02:02:41;102068.44;;;5.62;89.71
58245;BME280;44550;43.864;25.986;2022-12-18T02:06:42;102067.72;;;5.64;89.27
58245;BME280;44550;43.864;25.986;2022-12-18T02:10:46;102065.69;;;5.59;89.43
58245;BME280;44550;43.864;25.986;2022-12-18T02:14:54;102073.19;;;5.53;89.52
58245;BME280;44550;43.864;25.986;2022-12-18T02:18:55;102071.94;;;5.45;90.01
58245;BME280;44550;43.864;25.986;2022-12-18T02:23:00;102064.22;;;5.46;89.86
58245;BME280;44550;43.864;25.986;2022-12-18T02:27:07;102071.34;;;5.50;89.81
58245;BME280;44550;43.864;25.986;2022-12-18T02:31:08;102083.28;;;5.47;90.04
58245;BME280;44550;43.864;25.986;2022-12-18T02:35:11;102076.59;;;5.52;89.61
58245;BME280;44550;43.864;25.986;2022-12-18T02:39:12;102094.91;;;5.37;89.93
58245;BME280;44550;43.864;25.986;2022-12-18T02:43:15;102107.41;;;5.28;90.54
58245;BME280;44550;43.864;25.986;2022-12-18T02:47:15;102122.09;;;5.27;90.73
58245;BME280;44550;43.864;25.986;2022-12-18T02:51:18;102132.38;;;5.26;90.81
58245;BME280;44550;43.864;25.986;2022-12-18T02:55:26;102142.84;;;5.27;90.56
58245;BME280;44550;43.864;25.986;2022-12-18T02:59:32;102155.50;;;5.21;90.51
58245;BME280;44550;43.864;25.986;2022-12-18T03:03:35;102155.00;;;5.12;90.39
58245;BME280;44550;43.864;25.986;2022-12-18T03:07:39;102166.59;;;5.02;89.73
58245;BME280;44550;43.864;25.986;2022-12-18T03:11:44;102176.41;;;4.91;89.97
58245;BME280;44550;43.864;25.986;2022-12-18T03:16:04;102189.03;;;4.85;90.55
58245;BME280;44550;43.864;25.986;2022-12-18T03:20:05;102185.88;;;4.75;90.88
58245;BME280;44550;43.864;25.986;2022-12-18T03:24:07;102187.25;;;4.68;90.14
58245;BME280;44550;43.864;25.986;2022-12-18T03:28:07;102200.59;;;4.59;91.27
58245;BME280;44550;43.864;25.986;2022-12-18T03:32:11;102208.47;;;4.61;92.10
58245;BME280;44550;43.864;25.986;2022-12-18T03:36:13;102208.47;;;4.61;92.16
58245;BME280;44550;43.864;25.986;2022-12-18T03:40:12;102215.41;;;4.62;92.02
58245;BME280;44550;43.864;25.986;2022-12-18T03:44:12;102212.09;;;4.64;92.12
58245;BME280;44550;43.864;25.986;2022-12-18T03:48:17;102217.78;;;4.57;92.33
58245;BME280;44550;43.864;25.986;2022-12-18T03:52:20;102223.38;;;4.50;91.58
58245;BME280;44550;43.864;25.986;2022-12-18T03:56:22;102218.44;;;4.38;91.55
58245;BME280;44550;43.864;25.986;2022-12-18T04:00:23;102234.03;;;4.40;91.15
58245;BME280;44550;43.864;25.986;2022-12-18T04:04:25;102246.94;;;4.38;90.95
58245;BME280;44550;43.864;25.986;2022-12-18T04:08:28;102246.38;;;4.44;90.55
58245;BME280;44550;43.864;25.986;2022-12-18T04:12:29;102258.16;;;4.39;90.12
58245;BME280;44550;43.864;25.986;2022-12-18T04:16:28;102265.13;;;4.40;89.74
58245;BME280;44550;43.864;25.986;2022-12-18T04:20:31;102260.41;;;4.33;90.44
58245;BME280;44550;43.864;25.986;2022-12-18T04:24:30;102272.81;;;4.38;89.74
58245;BME280;44550;43.864;25.986;2022-12-18T04:28:30;102288.38;;;4.23;90.11
58245;BME280;44550;43.864;25.986;2022-12-18T04:32:29;102281.78;;;4.29;90.05
58245;BME280;44550;43.864;25.986;2022-12-18T04:36:32;102289.34;;;4.26;90.55
58245;BME280;44550;43.864;25.986;2022-12-18T04:40:31;102289.81;;;4.18;90.67
58245;BME280;44550;43.864;25.986;2022-12-18T04:44:34;102300.41;;;4.23;90.27
58245;BME280;44550;43.864;25.986;2022-12-18T04:48:33;102307.75;;;4.15;90.91
58245;BME280;44550;43.864;25.986;2022-12-18T04:52:34;102320.25;;;4.22;90.98
58245;BME280;44550;43.864;25.986;2022-12-18T04:56:33;102323.91;;;4.26;90.88
58245;BME280;44550;43.864;25.986;2022-12-18T05:00:33;102332.31;;;4.22;90.98
58245;BME280;44550;43.864;25.986;2022-12-18T05:04:32;102339.16;;;4.07;91.00
58245;BME280;44550;43.864;25.986;2022-12-18T05:08:33;102347.19;;;3.96;90.67
58245;BME280;44550;43.864;25.986;2022-12-18T05:12:32;102351.09;;;3.90;91.12
58245;BME280;44550;43.864;25.986;2022-12-18T05:16:51;102359.22;;;3.81;91.51
58245;BME280;44550;43.864;25.986;2022-12-18T05:20:56;102370.47;;;3.82;91.75
58245;BME280;44550;43.864;25.986;2022-12-18T05:24:58;102372.44;;;3.86;91.32
58245;BME280;44550;43.864;25.986;2022-12-18T05:28:57;102374.94;;;3.84;91.69
58245;BME280;44550;43.864;25.986;2022-12-18T05:32:56;102379.00;;;3.81;91.97
58245;BME280;44550;43.864;25.986;2022-12-18T05:36:56;102381.16;;;3.73;91.88
58245;BME280;44550;43.864;25.986;2022-12-18T05:40:57;102388.72;;;3.70;92.34
58245;BME280;44550;43.864;25.986;2022-12-18T05:44:56;102392.00;;;3.67;91.90
58245;BME280;44550;43.864;25.986;2022-12-18T05:48:55;102401.88;;;3.60;92.41
58245;BME280;44550;43.864;25.986;2022-12-18T05:52:54;102397.38;;;3.70;92.53
58245;BME280;44550;43.864;25.986;2022-12-18T05:56:55;102407.53;;;3.67;92.14
58245;BME280;44550;43.864;25.986;2022-12-18T06:00:55;102416.31;;;3.56;92.10
58245;BME280;44550;43.864;25.986;2022-12-18T06:04:54;102431.56;;;3.51;92.54
58245;BME280;44550;43.864;25.986;2022-12-18T06:08:54;102434.44;;;3.56;92.38
58245;BME280;44550;43.864;25.986;2022-12-18T06:12:56;102446.28;;;3.52;92.32
58245;BME280;44550;43.864;25.986;2022-12-18T06:16:55;102453.44;;;3.57;92.36
58245;BME280;44550;43.864;25.986;2022-12-18T06:20:54;102450.72;;;3.68;91.91
58245;BME280;44550;43.864;25.986;2022-12-18T06:24:54;102450.34;;;3.62;92.14
58245;BME280;44550;43.864;25.986;2022-12-18T06:28:56;102473.69;;;3.64;92.24
58245;BME280;44550;43.864;25.986;2022-12-18T06:32:55;102485.03;;;3.66;92.08
58245;BME280;44550;43.864;25.986;2022-12-18T06:36:54;102494.97;;;3.73;91.82
58245;BME280;44550;43.864;25.986;2022-12-18T06:40:53;102491.00;;;3.78;91.43
58245;BME280;44550;43.864;25.986;2022-12-18T06:44:55;102487.19;;;3.86;91.33
58245;BME280;44550;43.864;25.986;2022-12-18T06:48:54;102502.81;;;3.88;91.49
58245;BME280;44550;43.864;25.986;2022-12-18T06:52:53;102518.91;;;3.97;90.68
58245;BME280;44550;43.864;25.986;2022-12-18T06:56:52;102524.56;;;4.05;90.16
58245;BME280;44550;43.864;25.986;2022-12-18T07:00:54;102519.81;;;3.97;90.04
58245;BME280;44550;43.864;25.986;2022-12-18T07:04:58;102526.41;;;4.07;89.94
58245;BME280;44550;43.864;25.986;2022-12-18T07:09:03;102543.22;;;4.14;89.74
58245;BME280;44550;43.864;25.986;2022-12-18T07:13:02;102552.19;;;4.19;89.26
58245;BME280;44550;43.864;25.986;2022-12-18T07:17:03;102567.72;;;4.19;88.03
58245;BME280;44550;43.864;25.986;2022-12-18T07:21:03;102570.34;;;4.34;87.95
58245;BME280;44550;43.864;25.986;2022-12-18T07:25:04;102576.53;;;4.36;87.29
58245;BME280;44550;43.864;25.986;2022-12-18T07:29:03;102587.81;;;4.23;87.13
58245;BME280;44550;43.864;25.986;2022-12-18T07:33:04;102583.91;;;4.30;86.61
58245;BME280;44550;43.864;25.986;2022-12-18T07:37:04;102597.25;;;4.36;86.90
58245;BME280;44550;43.864;25.986;2022-12-18T07:41:04;102590.34;;;4.21;87.15
58245;BME280;44550;43.864;25.986;2022-12-18T07:45:04;102600.09;;;4.12;87.86
58245;BME280;44550;43.864;25.986;2022-12-18T07:49:05;102600.38;;;4.17;87.42
58245;BME280;44550;43.864;25.986;2022-12-18T07:53:05;102612.81;;;4.22;87.88
58245;BME280;44550;43.864;25.986;2022-12-18T07:57:04;102613.69;;;4.36;86.74
58245;BME280;44550;43.864;25.986;2022-12-18T08:01:23;102613.25;;;4.43;87.04
58245;BME280;44550;43.864;25.986;2022-12-18T08:05:25;102621.78;;;4.56;86.68
58245;BME280;44550;43.864;25.986;2022-12-18T08:09:24;102623.50;;;4.70;86.93
58245;BME280;44550;43.864;25.986;2022-12-18T08:13:24;102630.44;;;4.56;86.21
58245;BME280;44550;43.864;25.986;2022-12-18T08:17:24;102632.63;;;4.63;86.35
58245;BME280;44550;43.864;25.986;2022-12-18T08:21:26;102638.56;;;4.76;86.29
58245;BME280;44550;43.864;25.986;2022-12-18T08:25:26;102632.16;;;4.84;85.71
58245;BME280;44550;43.864;25.986;2022-12-18T08:29:25;102638.16;;;4.98;85.49
58245;BME280;44550;43.864;25.986;2022-12-18T08:33:25;102636.19;;;4.93;85.04
58245;BME280;44550;43.864;25.986;2022-12-18T08:37:26;102646.84;;;4.98;85.55
58245;BME280;44550;43.864;25.986;2022-12-18T08:41:25;102649.66;;;4.88;85.30
58245;BME280;44550;43.864;25.986;2022-12-18T08:45:25;102651.94;;;5.11;84.69
58245;BME280;44550;43.864;25.986;2022-12-18T08:49:24;102648.72;;;5.01;83.43
58245;BME280;44550;43.864;25.986;2022-12-18T08:53:25;102646.72;;;4.97;83.12
58245;BME280;44550;43.864;25.986;2022-12-18T08:57:31;102641.13;;;5.04;83.54
58245;BME280;44550;43.864;25.986;2022-12-18T09:01:30;102649.50;;;5.00;82.65
58245;BME280;44550;43.864;25.986;2022-12-18T09:05:31;102648.56;;;5.27;83.09
58245;BME280;44550;43.864;25.986;2022-12-18T09:11:56;102657.22;;;5.72;81.72
58245;BME280;44550;43.864;25.986;2022-12-18T09:15:56;102657.22;;;5.72;81.72
58245;BME280;44550;43.864;25.986;2022-12-18T09:19:55;102656.34;;;5.42;80.94
58245;BME280;44550;43.864;25.986;2022-12-18T09:23:55;102668.06;;;5.35;81.11
58245;BME280;44550;43.864;25.986;2022-12-18T09:27:56;102665.34;;;5.19;81.46
58245;BME280;44550;43.864;25.986;2022-12-18T09:31:57;102665.72;;;5.25;82.51
58245;BME280;44550;43.864;25.986;2022-12-18T09:35:56;102662.16;;;5.38;82.09
58245;BME280;44550;43.864;25.986;2022-12-18T09:39:56;102669.59;;;5.47;81.69
58245;BME280;44550;43.864;25.986;2022-12-18T09:43:58;102655.00;;;5.34;81.60
58245;BME280;44550;43.864;25.986;2022-12-18T09:48:02;102659.56;;;5.38;81.03
58245;BME280;44550;43.864;25.986;2022-12-18T09:52:08;102659.22;;;5.47;81.80
58245;BME280;44550;43.864;25.986;2022-12-18T09:56:09;102663.41;;;5.74;80.13
58245;BME280;44550;43.864;25.986;2022-12-18T10:00:15;102650.63;;;5.48;80.51
58245;BME280;44550;43.864;25.986;2022-12-18T10:04:15;102654.22;;;5.50;80.94
58245;BME280;44550;43.864;25.986;2022-12-18T10:08:17;102662.41;;;5.42;80.48
58245;BME280;44550;43.864;25.986;2022-12-18T10:12:21;102663.22;;;5.41;80.68
58245;BME280;44550;43.864;25.986;2022-12-18T10:16:27;102659.84;;;5.57;80.72
58245;BME280;44550;43.864;25.986;2022-12-18T10:20:33;102662.88;;;5.80;79.45
58245;BME280;44550;43.864;25.986;2022-12-18T10:24:36;102667.00;;;5.47;79.76
58245;BME280;44550;43.864;25.986;2022-12-18T10:28:37;102668.09;;;5.50;80.43
58245;BME280;44550;43.864;25.986;2022-12-18T10:32:40;102683.81;;;5.68;79.65
58245;BME280;44550;43.864;25.986;2022-12-18T10:36:40;102689.66;;;5.94;79.54
58245;BME280;44550;43.864;25.986;2022-12-18T10:40:47;102687.56;;;5.88;79.11
58245;BME280;44550;43.864;25.986;2022-12-18T10:44:47;102688.13;;;5.97;78.92
58245;BME280;44550;43.864;25.986;2022-12-18T10:49:01;102685.06;;;5.89;78.98
58245;BME280;44550;43.864;25.986;2022-12-18T10:53:03;102690.25;;;6.04;78.38
58245;BME280;44550;43.864;25.986;2022-12-18T10:57:16;102695.19;;;6.31;77.66
58245;BME280;44550;43.864;25.986;2022-12-18T11:01:16;102701.88;;;6.11;76.33
58245;BME280;44550;43.864;25.986;2022-12-18T11:05:25;102706.63;;;5.88;77.58
58245;BME280;44550;43.864;25.986;2022-12-18T11:09:26;102704.56;;;6.13;77.62
58245;BME280;44550;43.864;25.986;2022-12-18T11:13:27;102712.75;;;6.35;75.48
58245;BME280;44550;43.864;25.986;2022-12-18T11:17:28;102708.38;;;6.34;75.29
58245;BME280;44550;43.864;25.986;2022-12-18T11:21:30;102706.88;;;6.54;75.96
58245;BME280;44550;43.864;25.986;2022-12-18T11:25:37;102712.53;;;6.47;75.53
58245;BME280;44550;43.864;25.986;2022-12-18T11:29:39;102721.41;;;6.35;75.18
58245;BME280;44550;43.864;25.986;2022-12-18T11:33:44;102721.22;;;6.47;76.11
58245;BME280;44550;43.864;25.986;2022-12-18T11:38:10;102728.66;;;6.56;75.76
58245;BME280;44550;43.864;25.986;2022-12-18T11:42:14;102724.56;;;6.61;74.93
58245;BME280;44550;43.864;25.986;2022-12-18T11:46:17;102720.59;;;6.68;74.20
58245;BME280;44550;43.864;25.986;2022-12-18T11:50:18;102726.72;;;6.85;73.33
58245;BME280;44550;43.864;25.986;2022-12-18T11:54:21;102727.28;;;6.95;72.66
58245;BME280;44550;43.864;25.986;2022-12-18T11:58:26;102729.41;;;6.70;73.54
58245;BME280;44550;43.864;25.986;2022-12-18T12:02:33;102727.22;;;6.94;73.39
58245;BME280;44550;43.864;25.986;2022-12-18T12:06:39;102735.75;;;7.07;72.11
58245;BME280;44550;43.864;25.986;2022-12-18T12:10:48;102736.47;;;7.21;72.18
58245;BME280;44550;43.864;25.986;2022-12-18T12:14:52;102733.69;;;7.35;71.34
58245;BME280;44550;43.864;25.986;2022-12-18T12:19:01;102731.03;;;7.00;71.61
58245;BME280;44550;43.864;25.986;2022-12-18T12:23:03;102727.38;;;6.33;74.34
58245;BME280;44550;43.864;25.986;2022-12-18T12:27:08;102738.50;;;5.71;76.93
58245;BME280;44550;43.864;25.986;2022-12-18T12:31:11;102735.19;;;5.74;77.62
58245;BME280;44550;43.864;25.986;2022-12-18T12:35:18;102729.28;;;5.91;76.92
58245;BME280;44550;43.864;25.986;2022-12-18T12:39:20;102740.38;;;5.59;78.26
58245;BME280;44550;43.864;25.986;2022-12-18T12:43:25;102737.59;;;5.71;77.80
58245;BME280;44550;43.864;25.986;2022-12-18T12:47:26;102744.66;;;5.88;77.39
58245;BME280;44550;43.864;25.986;2022-12-18T12:51:27;102743.22;;;5.78;77.60
58245;BME280;44550;43.864;25.986;2022-12-18T12:55:28;102744.88;;;5.76;78.00
58245;BME280;44550;43.864;25.986;2022-12-18T12:59:31;102751.56;;;6.02;77.36
58245;BME280;44550;43.864;25.986;2022-12-18T13:03:36;102760.28;;;6.03;76.95
58245;BME280;44550;43.864;25.986;2022-12-18T13:07:41;102752.47;;;6.18;76.71
58245;BME280;44550;43.864;25.986;2022-12-18T13:11:45;102762.22;;;6.22;76.90
58245;BME280;44550;43.864;25.986;2022-12-18T13:16:05;102760.63;;;6.09;76.48
58245;BME280;44550;43.864;25.986;2022-12-18T13:20:11;102778.19;;;5.98;77.61
58245;BME280;44550;43.864;25.986;2022-12-18T13:24:15;102777.78;;;5.77;78.11
58245;BME280;44550;43.864;25.986;2022-12-18T13:28:14;102788.88;;;5.75;78.60
58245;BME280;44550;43.864;25.986;2022-12-18T13:32:21;102787.72;;;5.84;78.20
58245;BME280;44550;43.864;25.986;2022-12-18T13:36:26;102801.97;;;5.91;77.94
58245;BME280;44550;43.864;25.986;2022-12-18T13:44:53;102815.09;;;6.07;78.07
58245;BME280;44550;43.864;25.986;2022-12-18T13:49:00;102823.41;;;6.02;78.67
58245;BME280;44550;43.864;25.986;2022-12-18T13:53:02;102824.41;;;6.04;78.97
58245;BME280;44550;43.864;25.986;2022-12-18T13:57:04;102830.41;;;6.03;79.04
58245;BME280;44550;43.864;25.986;2022-12-18T14:01:03;102836.56;;;6.05;78.72
58245;BME280;44550;43.864;25.986;2022-12-18T14:09:24;102856.81;;;6.10;78.59
58245;BME280;44550;43.864;25.986;2022-12-18T14:13:26;102869.06;;;5.98;79.14
58245;BME280;44550;43.864;25.986;2022-12-18T14:17:26;102869.69;;;5.94;80.02
58245;BME280;44550;43.864;25.986;2022-12-18T14:21:26;102870.34;;;6.05;79.83
58245;BME280;44550;43.864;25.986;2022-12-18T14:25:30;102868.44;;;6.02;79.37
58245;BME280;44550;43.864;25.986;2022-12-18T14:29:30;102872.66;;;6.00;80.00
58245;BME280;44550;43.864;25.986;2022-12-18T14:33:29;102874.38;;;6.00;80.33
58245;BME280;44550;43.864;25.986;2022-12-18T14:37:29;102882.06;;;5.98;80.02
58245;BME280;44550;43.864;25.986;2022-12-18T14:41:30;102882.56;;;5.93;80.51
58245;BME280;44550;43.864;25.986;2022-12-18T14:45:34;102893.75;;;5.92;80.98
58245;BME280;44550;43.864;25.986;2022-12-18T14:49:38;102895.34;;;6.03;81.12
58245;BME280;44550;43.864;25.986;2022-12-18T14:53:40;102899.19;;;6.09;80.88
58245;BME280;44550;43.864;25.986;2022-12-18T14:57:51;102895.25;;;6.16;80.69
58245;BME280;44550;43.864;25.986;2022-12-18T15:01:55;102887.72;;;6.21;80.45
58245;BME280;44550;43.864;25.986;2022-12-18T15:05:56;102912.63;;;6.17;80.10
58245;BME280;44550;43.864;25.986;2022-12-18T15:10:14;102911.31;;;5.96;81.91
58245;BME280;44550;43.864;25.986;2022-12-18T15:14:29;102917.63;;;5.86;83.63
58245;BME280;44550;43.864;25.986;2022-12-18T15:18:32;102914.69;;;5.80;84.96
58245;BME280;44550;43.864;25.986;2022-12-18T15:22:33;102927.59;;;5.65;86.79
58245;BME280;44550;43.864;25.986;2022-12-18T15:26:34;102934.47;;;5.36;89.01
58245;BME280;44550;43.864;25.986;2022-12-18T15:30:37;102931.16;;;5.39;90.58
58245;BME280;44550;43.864;25.986;2022-12-18T15:34:36;102940.25;;;5.32;94.37
58245;BME280;44550;43.864;25.986;2022-12-18T15:38:36;102935.88;;;5.18;96.46
58245;BME280;44550;43.864;25.986;2022-12-18T15:42:35;102940.06;;;5.16;98.15
58245;BME280;44550;43.864;25.986;2022-12-18T15:46:53;102943.56;;;5.03;100.00
58245;BME280;44550;43.864;25.986;2022-12-18T15:50:52;102953.25;;;4.92;100.00
58245;BME280;44550;43.864;25.986;2022-12-18T15:54:53;102957.44;;;4.90;100.00
58245;BME280;44550;43.864;25.986;2022-12-18T15:59:10;102960.03;;;4.90;100.00
58245;BME280;44550;43.864;25.986;2022-12-18T16:03:12;102962.91;;;4.82;100.00
58245;BME280;44550;43.864;25.986;2022-12-18T16:07:12;102966.19;;;4.79;100.00
58245;BME280;44550;43.864;25.986;2022-12-18T16:11:19;102975.25;;;4.72;100.00
58245;BME280;44550;43.864;25.986;2022-12-18T16:15:34;102970.69;;;4.68;100.00
58245;BME280;44550;43.864;25.986;2022-12-18T16:19:35;102976.53;;;4.66;100.00
58245;BME280;44550;43.864;25.986;2022-12-18T16:23:34;102984.66;;;4.70;100.00
58245;BME280;44550;43.864;25.986;2022-12-18T16:27:33;103000.50;;;4.50;100.00
58245;BME280;44550;43.864;25.986;2022-12-18T16:31:33;103000.13;;;4.44;97.83
58245;BME280;44550;43.864;25.986;2022-12-18T16:35:34;103015.25;;;4.38;96.62
58245;BME280;44550;43.864;25.986;2022-12-18T16:39:34;103014.22;;;4.36;96.14
58245;BME280;44550;43.864;25.986;2022-12-18T16:43:33;103037.41;;;4.21;96.57
58245;BME280;44550;43.864;25.986;2022-12-18T16:47:32;103029.72;;;4.22;97.04
58245;BME280;44550;43.864;25.986;2022-12-18T16:51:34;103038.50;;;4.24;97.25
58245;BME280;44550;43.864;25.986;2022-12-18T16:55:33;103029.72;;;4.22;97.95
58245;BME280;44550;43.864;25.986;2022-12-18T16:59:33;103032.16;;;4.33;98.00
58245;BME280;44550;43.864;25.986;2022-12-18T17:03:32;103054.34;;;4.29;97.32
58245;BME280;44550;43.864;25.986;2022-12-18T17:07:33;103066.41;;;4.29;96.96
58245;BME280;44550;43.864;25.986;2022-12-18T17:11:33;103062.03;;;4.28;96.24
58245;BME280;44550;43.864;25.986;2022-12-18T17:15:33;103064.84;;;4.31;94.79
58245;BME280;44550;43.864;25.986;2022-12-18T17:19:33;103082.59;;;4.38;94.24
58245;BME280;44550;43.864;25.986;2022-12-18T17:23:35;103088.44;;;4.35;93.56
58245;BME280;44550;43.864;25.986;2022-12-18T17:27:36;103093.50;;;4.34;93.31
58245;BME280;44550;43.864;25.986;2022-12-18T17:31:35;103100.44;;;4.46;91.28
58245;BME280;44550;43.864;25.986;2022-12-18T17:35:35;103099.25;;;4.41;89.02
58245;BME280;44550;43.864;25.986;2022-12-18T17:39:37;103106.81;;;4.38;88.41
58245;BME280;44550;43.864;25.986;2022-12-18T17:43:36;103119.09;;;4.29;85.05
58245;BME280;44550;43.864;25.986;2022-12-18T17:47:41;103119.09;;;4.29;83.53
58245;BME280;44550;43.864;25.986;2022-12-18T17:51:40;103141.44;;;4.15;82.86
58245;BME280;44550;43.864;25.986;2022-12-18T17:55:42;103145.84;;;4.05;82.92
58245;BME280;44550;43.864;25.986;2022-12-18T17:59:41;103158.91;;;3.94;83.59
58245;BME280;44550;43.864;25.986;2022-12-18T18:03:40;103164.44;;;3.75;83.31
58245;BME280;44550;43.864;25.986;2022-12-18T18:07:40;103168.94;;;3.78;83.19
58245;BME280;44550;43.864;25.986;2022-12-18T18:11:42;103186.69;;;3.73;81.83
58245;BME280;44550;43.864;25.986;2022-12-18T18:15:58;103187.25;;;3.69;82.39
58245;BME280;44550;43.864;25.986;2022-12-18T18:19:59;103181.63;;;3.63;82.68
58245;BME280;44550;43.864;25.986;2022-12-18T18:23:59;103164.97;;;3.60;82.59
58245;BME280;44550;43.864;25.986;2022-12-18T18:28:01;103178.03;;;3.73;81.88
58245;BME280;44550;43.864;25.986;2022-12-18T18:32:00;103187.03;;;3.66;81.69
58245;BME280;44550;43.864;25.986;2022-12-18T18:35:59;103201.44;;;3.63;81.45
58245;BME280;44550;43.864;25.986;2022-12-18T18:40:02;103196.34;;;3.52;81.56
58245;BME280;44550;43.864;25.986;2022-12-18T18:44:03;103186.44;;;3.47;81.83
58245;BME280;44550;43.864;25.986;2022-12-18T18:48:03;103192.41;;;3.46;81.65
58245;BME280;44550;43.864;25.986;2022-12-18T18:52:02;103190.50;;;3.43;82.13
58245;BME280;44550;43.864;25.986;2022-12-18T18:56:04;103206.75;;;3.30;83.13
58245;BME280;44550;43.864;25.986;2022-12-18T19:00:25;103207.88;;;3.34;82.92
58245;BME280;44550;43.864;25.986;2022-12-18T19:04:24;103210.75;;;3.49;82.89
58245;BME280;44550;43.864;25.986;2022-12-18T19:08:24;103226.84;;;3.45;82.70
58245;BME280;44550;43.864;25.986;2022-12-18T19:12:23;103242.44;;;3.35;83.25
58245;BME280;44550;43.864;25.986;2022-12-18T19:16:41;103253.91;;;3.38;83.87
58245;BME280;44550;43.864;25.986;2022-12-18T19:20:41;103269.78;;;3.43;84.36
58245;BME280;44550;43.864;25.986;2022-12-18T19:24:44;103277.53;;;3.43;84.34
58245;BME280;44550;43.864;25.986;2022-12-18T19:28:44;103298.13;;;3.41;85.56
58245;BME280;44550;43.864;25.986;2022-12-18T19:32:46;103310.25;;;3.42;86.63
58245;BME280;44550;43.864;25.986;2022-12-18T19:36:45;103309.88;;;3.38;87.69
58245;BME280;44550;43.864;25.986;2022-12-18T19:40:44;103300.16;;;3.45;88.45
58245;BME280;44550;43.864;25.986;2022-12-18T19:44:45;103304.91;;;3.29;89.50
58245;BME280;44550;43.864;25.986;2022-12-18T19:48:46;103300.97;;;3.22;90.87
58245;BME280;44550;43.864;25.986;2022-12-18T19:52:46;103294.50;;;3.17;92.46
58245;BME280;44550;43.864;25.986;2022-12-18T19:56:45;103299.41;;;3.02;94.16
58245;BME280;44550;43.864;25.986;2022-12-18T20:00:44;103310.34;;;2.88;96.29
58245;BME280;44550;43.864;25.986;2022-12-18T20:04:46;103301.31;;;2.83;97.50
58245;BME280;44550;43.864;25.986;2022-12-18T20:08:45;103309.59;;;2.79;98.89
58245;BME280;44550;43.864;25.986;2022-12-18T20:12:44;103306.38;;;2.81;99.88
58245;BME280;44550;43.864;25.986;2022-12-18T20:16:44;103305.69;;;2.62;100.00
58245;BME280;44550;43.864;25.986;2022-12-18T20:20:46;103311.34;;;2.58;100.00
58245;BME280;44550;43.864;25.986;2022-12-18T20:24:47;103316.75;;;2.61;100.00
58245;BME280;44550;43.864;25.986;2022-12-18T20:28:47;103326.13;;;2.49;100.00
58245;BME280;44550;43.864;25.986;2022-12-18T20:32:45;103318.63;;;2.42;100.00
58245;BME280;44550;43.864;25.986;2022-12-18T20:36:47;103326.66;;;2.34;100.00
58245;BME280;44550;43.864;25.986;2022-12-18T20:40:47;103332.50;;;2.32;100.00
58245;BME280;44550;43.864;25.986;2022-12-18T20:44:46;103344.63;;;2.33;100.00
58245;BME280;44550;43.864;25.986;2022-12-18T20:48:45;103337.91;;;2.25;100.00
58245;BME280;44550;43.864;25.986;2022-12-18T20:52:48;103340.75;;;2.28;100.00
58245;BME280;44550;43.864;25.986;2022-12-18T20:56:47;103343.19;;;2.37;100.00
58245;BME280;44550;43.864;25.986;2022-12-18T21:00:46;103347.81;;;2.41;100.00
58245;BME280;44550;43.864;25.986;2022-12-18T21:04:46;103351.16;;;2.50;97.19
58245;BME280;44550;43.864;25.986;2022-12-18T21:08:47;103347.41;;;2.56;96.01
58245;BME280;44550;43.864;25.986;2022-12-18T21:12:47;103350.56;;;2.74;94.49
58245;BME280;44550;43.864;25.986;2022-12-18T21:16:59;103363.97;;;2.80;92.08